createdAt,value
2019-01-15T00:01:00.881Z,10.25
2019-01-15T00:03:29.690Z,11.90
2019-01-15T00:05:58.810Z,14.30
2019-01-15T00:08:27.610Z,14.85
2019-01-15T00:10:56.502Z,8.53
2019-01-15T00:13:25.334Z,13.72
2019-01-15T00:15:54.044Z,11.53
2019-01-15T00:18:22.789Z,17.98
2019-01-15T00:20:51.523Z,22.37
2019-01-15T00:23:20.338Z,17.07
2019-01-15T00:25:49.173Z,13.13
2019-01-15T00:28:18.050Z,6.85
2019-01-15T00:30:46.778Z,10.95
2019-01-15T00:33:15.541Z,14.28
2019-01-15T00:35:44.434Z,7.00
2019-01-15T00:38:13.234Z,7.58
2019-01-15T00:40:42.118Z,7.60
2019-01-15T00:43:10.886Z,10.82
2019-01-15T00:45:39.678Z,8.88
2019-01-15T00:48:08.888Z,7.30
2019-01-15T00:50:37.638Z,7.85
2019-01-15T00:53:06.361Z,9.08
2019-01-15T00:55:35.093Z,5.22
2019-01-15T00:58:03.922Z,9.68
2019-01-15T01:00:32.695Z,4.92
2019-01-15T01:03:01.506Z,10.68
2019-01-15T01:05:30.216Z,7.53
2019-01-15T01:07:58.960Z,7.55
2019-01-15T01:10:27.693Z,11.70
2019-01-15T01:12:56.482Z,12.68
2019-01-15T01:15:25.225Z,8.33
2019-01-15T01:17:56.003Z,8.90
2019-01-15T01:20:24.831Z,8.60
2019-01-15T01:22:53.579Z,6.15
2019-01-15T01:25:22.432Z,4.20
2019-01-15T01:27:51.190Z,4.72
2019-01-15T01:30:23.568Z,10.20
2019-01-15T01:32:52.418Z,11.95
2019-01-15T01:35:21.181Z,10.03
2019-01-15T01:37:49.922Z,7.35
2019-01-15T01:40:19.794Z,5.20
2019-01-15T01:42:48.567Z,10.08
2019-01-15T01:45:18.021Z,7.25
2019-01-15T01:47:46.741Z,8.08
2019-01-15T01:50:15.530Z,10.63
2019-01-15T01:52:44.422Z,10.98
2019-01-15T01:55:14.670Z,6.08
2019-01-15T01:57:43.587Z,9.30
2019-01-15T02:00:18.566Z,9.70
2019-01-15T02:02:47.389Z,9.70
2019-01-15T02:05:16.094Z,9.95
2019-01-15T02:07:44.829Z,7.08
2019-01-15T02:10:20.460Z,12.13
2019-01-15T02:12:49.893Z,11.03
2019-01-15T02:15:23.470Z,9.63
2019-01-15T02:17:52.186Z,11.70
2019-01-15T02:20:20.957Z,9.50
2019-01-15T02:22:49.814Z,14.68
2019-01-15T02:25:18.532Z,12.20
2019-01-15T02:27:49.522Z,10.85
2019-01-15T02:30:20.296Z,17.32
2019-01-15T02:32:50.059Z,15.20
2019-01-15T02:35:18.875Z,11.65
2019-01-15T02:37:47.751Z,19.82
2019-01-15T02:40:16.546Z,17.10
2019-01-15T02:42:46.816Z,16.87
2019-01-15T02:45:17.778Z,17.42
2019-01-15T02:47:46.868Z,17.42
2019-01-15T02:50:16.793Z,20.20
2019-01-15T02:52:45.600Z,16.05
2019-01-15T02:55:14.351Z,15.25
2019-01-15T02:57:43.185Z,22.37
2019-01-15T03:00:23.066Z,19.90
2019-01-15T03:02:51.934Z,16.35
2019-01-15T03:05:20.823Z,15.50
2019-01-15T03:07:49.713Z,16.30
2019-01-15T03:10:19.310Z,14.05
2019-01-15T03:12:55.460Z,15.08
2019-01-15T03:15:23.665Z,16.00
2019-01-15T03:17:52.846Z,14.40
2019-01-15T03:20:21.715Z,14.80
2019-01-15T03:22:50.540Z,17.60
2019-01-15T03:25:19.373Z,22.65
2019-01-15T03:27:48.139Z,17.23
2019-01-15T03:30:21.705Z,19.05
2019-01-15T03:32:50.542Z,20.20
2019-01-15T03:35:19.326Z,18.62
2019-01-15T03:37:48.133Z,14.78
2019-01-15T03:40:21.813Z,18.17
2019-01-15T03:42:50.591Z,21.05
2019-01-15T03:45:19.349Z,20.27
2019-01-15T03:47:48.054Z,22.75
2019-01-15T03:50:17.272Z,19.30
2019-01-15T03:52:46.093Z,25.45
2019-01-15T03:55:15.157Z,17.77
2019-01-15T03:57:46.258Z,22.95
2019-01-15T04:00:23.650Z,21.95
2019-01-15T04:02:52.857Z,19.07
2019-01-15T04:05:22.715Z,26.80
2019-01-15T04:07:55.921Z,29.00
2019-01-15T04:10:24.734Z,20.80
2019-01-15T04:12:53.538Z,28.47
2019-01-15T04:15:22.285Z,27.77
2019-01-15T04:17:51.124Z,23.35
2019-01-15T04:20:19.875Z,31.52
2019-01-15T04:22:48.713Z,31.50
2019-01-15T04:25:17.418Z,24.12
2019-01-15T04:27:46.122Z,26.75
2019-01-15T04:30:17.199Z,26.17
2019-01-15T04:32:45.974Z,26.57
2019-01-15T04:35:14.776Z,26.20
2019-01-15T04:37:43.633Z,26.57
2019-01-15T04:40:17.583Z,25.23
2019-01-15T04:42:46.307Z,26.50
2019-01-15T04:45:16.468Z,17.17
2019-01-15T04:47:45.178Z,24.92
2019-01-15T04:50:15.634Z,27.27
2019-01-15T04:52:46.476Z,26.15
2019-01-15T04:55:15.262Z,29.07
2019-01-15T04:57:43.999Z,33.23
2019-01-15T05:00:15.214Z,33.73
2019-01-15T05:02:44.354Z,35.43
2019-01-15T05:05:13.098Z,34.80
2019-01-15T05:07:41.880Z,27.77
2019-01-15T05:10:11.704Z,29.45
2019-01-15T05:12:40.428Z,27.93
2019-01-15T05:15:12.904Z,30.45
2019-01-15T05:17:41.459Z,32.08
2019-01-15T05:20:11.480Z,31.60
2019-01-15T05:22:40.203Z,25.70
2019-01-15T05:25:11.709Z,34.65
2019-01-15T05:27:40.829Z,26.02
2019-01-15T05:30:13.369Z,34.63
2019-01-15T05:32:44.458Z,27.85
2019-01-15T05:35:13.165Z,28.05
2019-01-15T05:37:41.889Z,24.65
2019-01-15T05:40:10.864Z,23.38
2019-01-15T05:42:40.844Z,28.65
2019-01-15T05:45:12.735Z,29.82
2019-01-15T05:47:41.739Z,26.97
2019-01-15T05:50:13.272Z,42.48
2019-01-15T05:52:41.983Z,27.30
2019-01-15T05:55:10.715Z,29.20
2019-01-15T05:57:39.471Z,20.12
2019-01-15T06:00:09.654Z,25.75
2019-01-15T06:02:38.485Z,20.68
2019-01-15T06:05:08.309Z,24.52
2019-01-15T06:07:37.010Z,32.05
2019-01-15T06:10:08.534Z,26.02
2019-01-15T06:12:37.455Z,26.00
2019-01-15T06:15:07.271Z,19.25
2019-01-15T06:17:36.050Z,27.48
2019-01-15T06:20:06.342Z,21.52
2019-01-15T06:22:35.132Z,17.50
2019-01-15T06:25:04.176Z,17.95
2019-01-15T06:27:33.028Z,15.08
2019-01-15T06:30:01.746Z,18.15
2019-01-15T06:32:30.488Z,11.63
2019-01-15T06:35:00.051Z,14.87
2019-01-15T06:37:28.775Z,14.43
2019-01-15T06:39:57.508Z,16.70
2019-01-15T06:42:26.238Z,18.42
2019-01-15T06:44:54.954Z,19.12
2019-01-15T06:47:24.530Z,17.82
2019-01-15T06:49:53.357Z,13.22
2019-01-15T06:52:22.162Z,13.85
2019-01-15T06:54:51.090Z,19.35
2019-01-15T06:57:19.841Z,21.57
2019-01-15T06:59:48.676Z,16.12
2019-01-15T07:02:17.415Z,18.92
2019-01-15T07:04:46.190Z,18.65
2019-01-15T07:07:14.939Z,18.62
2019-01-15T07:09:43.760Z,18.57
2019-01-15T07:12:12.582Z,18.35
2019-01-15T07:14:41.407Z,20.77
2019-01-15T07:17:10.506Z,18.62
2019-01-15T07:19:39.260Z,20.95
2019-01-15T07:22:07.998Z,15.53
2019-01-15T07:24:36.747Z,24.35
2019-01-15T07:27:05.980Z,20.95
2019-01-15T07:29:34.777Z,17.30
2019-01-15T07:32:03.539Z,18.15
2019-01-15T07:34:32.468Z,16.27
2019-01-15T07:37:01.262Z,13.58
2019-01-15T07:39:30.078Z,19.48
2019-01-15T07:41:58.937Z,16.55
2019-01-15T07:44:27.846Z,18.57
2019-01-15T07:46:56.558Z,13.38
2019-01-15T07:49:25.414Z,19.07
2019-01-15T07:51:54.191Z,22.30
2019-01-15T07:54:23.030Z,22.15
2019-01-15T07:56:53.800Z,15.10
2019-01-15T07:59:22.297Z,19.52
2019-01-15T08:01:51.765Z,13.55
2019-01-15T08:04:20.567Z,18.23
2019-01-15T08:06:49.433Z,13.15
2019-01-15T08:09:18.183Z,22.22
2019-01-15T08:11:46.951Z,16.45
2019-01-15T08:14:16.897Z,13.62
2019-01-15T08:16:45.684Z,21.95
2019-01-15T08:19:14.486Z,23.05
2019-01-15T08:21:43.304Z,18.70
2019-01-15T08:24:12.013Z,20.57
2019-01-15T08:26:40.822Z,14.65
2019-01-15T08:29:09.615Z,17.62
2019-01-15T08:31:38.386Z,20.77
2019-01-15T08:34:07.119Z,18.17
2019-01-15T08:36:35.846Z,16.05
2019-01-15T08:39:07.468Z,14.45
2019-01-15T08:41:36.187Z,18.80
2019-01-15T08:44:05.018Z,21.10
2019-01-15T08:46:34.725Z,20.37
2019-01-15T08:49:22.735Z,15.20
2019-01-15T08:51:52.530Z,20.20
2019-01-15T08:54:21.527Z,19.57
2019-01-15T08:56:50.403Z,15.83
2019-01-15T08:59:19.194Z,22.75
2019-01-15T09:01:47.963Z,17.00
2019-01-15T09:04:16.691Z,9.98
2019-01-15T09:06:45.434Z,20.92
2019-01-15T09:09:14.145Z,14.93
2019-01-15T09:11:42.850Z,18.95
2019-01-15T09:14:11.629Z,21.42
2019-01-15T09:16:40.346Z,19.02
2019-01-15T09:19:09.215Z,14.18
2019-01-15T09:21:37.974Z,18.65
2019-01-15T09:24:06.706Z,21.90
2019-01-15T09:26:36.287Z,22.30
2019-01-15T09:29:05.112Z,17.07
2019-01-15T09:31:33.909Z,19.73
2019-01-15T09:34:02.623Z,19.00
2019-01-15T09:36:31.363Z,16.25
2019-01-15T09:39:00.074Z,18.42
2019-01-15T09:41:28.949Z,19.77
2019-01-15T09:43:57.801Z,22.90
2019-01-15T09:46:26.542Z,14.90
2019-01-15T09:48:55.351Z,16.75
2019-01-15T09:51:24.100Z,13.30
2019-01-15T09:53:52.861Z,14.23
2019-01-15T09:56:21.620Z,15.65
2019-01-15T09:58:51.150Z,21.25
2019-01-15T10:01:19.870Z,10.72
2019-01-15T10:03:51.467Z,14.15
2019-01-15T10:06:20.277Z,19.10
2019-01-15T10:08:49.035Z,15.03
2019-01-15T10:11:17.804Z,17.85
2019-01-15T10:13:46.558Z,15.23
2019-01-15T10:16:17.209Z,15.68
2019-01-15T10:18:46.057Z,15.25
2019-01-15T10:21:14.918Z,8.63
2019-01-15T10:23:43.745Z,16.97
2019-01-15T10:26:12.498Z,16.37
2019-01-15T10:28:44.155Z,16.17
2019-01-15T10:31:56.695Z,14.10
2019-01-15T10:34:35.163Z,14.18
2019-01-15T10:37:02.763Z,15.45
2019-01-15T10:39:31.507Z,18.00
2019-01-15T10:42:00.341Z,12.58
2019-01-15T10:44:29.096Z,16.75
2019-01-15T10:46:57.878Z,17.32
2019-01-15T10:49:26.712Z,20.62
2019-01-15T10:51:55.471Z,15.13
2019-01-15T10:54:24.247Z,22.45
2019-01-15T10:56:53.051Z,21.20
2019-01-15T10:59:21.778Z,19.73
2019-01-15T11:01:50.512Z,15.23
2019-01-15T11:04:19.250Z,16.02
2019-01-15T11:06:47.971Z,14.45
2019-01-15T11:09:16.714Z,15.43
2019-01-15T11:11:45.468Z,13.28
2019-01-15T11:14:17.694Z,18.45
2019-01-15T11:16:46.432Z,17.85
2019-01-15T11:19:15.281Z,17.55
2019-01-15T11:21:44.006Z,16.80
2019-01-15T11:24:12.763Z,15.38
2019-01-15T11:26:41.506Z,14.50
2019-01-15T11:29:10.226Z,16.97
2019-01-15T11:31:38.986Z,15.23
2019-01-15T11:34:07.766Z,17.77
2019-01-15T11:36:36.539Z,16.75
2019-01-15T11:39:08.729Z,18.10
2019-01-15T11:41:37.481Z,11.70
2019-01-15T11:44:06.198Z,16.90
2019-01-15T11:46:34.926Z,14.05
2019-01-15T11:49:03.774Z,25.85
2019-01-15T11:51:32.528Z,12.82
2019-01-15T11:54:01.262Z,29.67
2019-01-15T11:56:30.098Z,14.50
2019-01-15T11:58:59.517Z,19.57
2019-01-15T12:01:47.149Z,16.87
2019-01-15T12:04:41.026Z,17.55
2019-01-15T12:07:27.330Z,17.12
2019-01-15T12:10:12.530Z,21.17
2019-01-15T12:12:58.946Z,16.80
2019-01-15T12:15:54.400Z,12.03
2019-01-15T12:18:51.322Z,16.52
2019-01-15T12:21:38.050Z,17.55
2019-01-15T12:24:24.896Z,15.13
2019-01-15T12:27:05.351Z,14.55
2019-01-15T12:29:53.189Z,17.27
2019-01-15T12:32:50.175Z,19.57
2019-01-15T12:35:38.566Z,15.20
2019-01-15T12:38:25.463Z,17.95
2019-01-15T12:41:19.134Z,16.37
2019-01-15T12:44:19.054Z,15.63
2019-01-15T12:47:05.467Z,15.68
2019-01-15T12:49:52.429Z,14.13
2019-01-15T12:52:55.590Z,15.38
2019-01-15T12:56:01.406Z,21.27
2019-01-15T12:58:49.304Z,11.18
2019-01-15T13:01:37.584Z,13.65
2019-01-15T13:04:20.325Z,17.67
2019-01-15T13:07:12.838Z,15.43
2019-01-15T13:10:09.742Z,18.40
2019-01-15T13:12:54.558Z,18.27
2019-01-15T13:15:45.398Z,9.23
2019-01-15T13:18:35.126Z,14.23
2019-01-15T13:21:20.948Z,14.47
2019-01-15T13:23:59.978Z,17.27
2019-01-15T13:26:47.869Z,13.85
2019-01-15T13:29:34.626Z,19.27
2019-01-15T13:32:16.929Z,14.98
2019-01-15T13:34:56.574Z,15.25
2019-01-15T13:37:50.245Z,16.67
2019-01-15T13:40:28.821Z,17.98
2019-01-15T13:43:17.508Z,18.52
2019-01-15T13:46:03.962Z,15.03
2019-01-15T13:48:55.560Z,15.25
2019-01-15T13:51:55.962Z,17.17
2019-01-15T13:54:55.966Z,15.93
2019-01-15T13:57:50.485Z,12.82
2019-01-15T14:00:36.143Z,16.60
2019-01-15T14:03:32.782Z,12.68
2019-01-15T14:06:17.192Z,13.28
2019-01-15T14:08:56.235Z,11.55
2019-01-15T14:11:53.214Z,15.48
2019-01-15T14:14:43.813Z,16.07
2019-01-15T14:17:37.747Z,15.35
2019-01-15T14:20:31.462Z,15.03
2019-01-15T14:23:22.401Z,20.05
2019-01-15T14:26:02.626Z,17.05
2019-01-15T14:28:43.482Z,13.18
2019-01-15T14:31:46.694Z,13.50
2019-01-15T14:34:33.086Z,16.52
2019-01-15T14:37:18.498Z,16.62
2019-01-15T14:40:15.126Z,14.87
2019-01-15T14:42:53.307Z,23.32
2019-01-15T14:45:46.952Z,18.75
2019-01-15T14:48:37.446Z,21.87
2019-01-15T14:51:22.038Z,17.73
2019-01-15T14:54:09.844Z,27.93
2019-01-15T14:57:32.814Z,17.65
2019-01-15T15:00:24.054Z,15.03
2019-01-15T15:03:11.542Z,17.67
2019-01-15T15:06:02.474Z,20.05
2019-01-15T15:08:48.936Z,11.30
2019-01-15T15:11:52.090Z,21.07
2019-01-15T15:14:28.935Z,18.27
2019-01-15T15:17:23.129Z,16.67
2019-01-15T15:20:13.882Z,13.80
2019-01-15T15:23:02.758Z,17.77
2019-01-15T15:25:58.778Z,20.45
2019-01-15T15:28:57.572Z,17.90
2019-01-15T15:31:44.385Z,13.83
2019-01-15T15:34:47.762Z,12.65
2019-01-15T15:37:34.398Z,15.28
2019-01-15T15:40:37.750Z,20.62
2019-01-15T15:43:22.864Z,17.35
2019-01-15T15:46:11.370Z,14.80
2019-01-15T15:48:57.458Z,15.90
2019-01-15T15:51:51.334Z,18.00
2019-01-15T15:54:38.718Z,18.35
2019-01-15T15:57:29.007Z,15.53
2019-01-15T16:00:15.908Z,19.57
2019-01-15T16:03:03.974Z,17.55
2019-01-15T16:05:54.970Z,16.00
2019-01-15T16:08:58.356Z,20.90
2019-01-15T16:11:54.278Z,16.00
2019-01-15T16:14:45.751Z,15.03
2019-01-15T16:17:46.017Z,12.80
2019-01-15T16:20:36.860Z,26.85
2019-01-15T16:23:30.700Z,19.75
2019-01-15T16:26:14.810Z,14.43
2019-01-15T16:28:56.652Z,16.75
2019-01-15T16:31:50.515Z,15.10
2019-01-15T16:34:28.229Z,21.90
2019-01-15T16:37:13.835Z,11.25
2019-01-15T16:40:02.355Z,11.75
2019-01-15T16:42:51.266Z,17.35
2019-01-15T16:45:39.214Z,15.50
2019-01-15T16:48:33.130Z,15.95
2019-01-15T16:51:20.914Z,13.22
2019-01-15T16:54:11.565Z,17.48
2019-01-15T16:56:59.347Z,13.53
2019-01-15T16:59:43.058Z,11.75
2019-01-15T17:02:23.201Z,13.78
2019-01-15T17:05:05.412Z,10.80
2019-01-15T17:07:54.257Z,12.78
2019-01-15T17:10:33.621Z,12.23
2019-01-15T17:13:20.195Z,11.30
2019-01-15T17:16:18.843Z,19.55
2019-01-15T17:19:08.022Z,14.38
2019-01-15T17:21:58.603Z,14.63
2019-01-15T17:24:56.474Z,22.60
2019-01-15T17:27:35.950Z,13.08
2019-01-15T17:30:23.758Z,15.28
2019-01-15T17:33:19.754Z,19.65
2019-01-15T17:36:18.589Z,11.85
2019-01-15T17:39:18.754Z,20.45
2019-01-15T17:42:06.558Z,14.55
2019-01-15T17:44:57.113Z,14.23
2019-01-15T17:47:44.887Z,13.53
2019-01-15T17:50:42.264Z,20.68
2019-01-15T17:53:28.603Z,17.92
2019-01-15T17:56:20.270Z,15.95
2019-01-15T17:59:26.259Z,14.43
2019-01-15T18:02:29.410Z,20.02
2019-01-15T18:05:16.221Z,13.75
2019-01-15T18:08:02.954Z,15.88
2019-01-15T18:11:03.361Z,16.37
2019-01-15T18:13:48.953Z,20.23
2019-01-15T18:16:49.066Z,21.93
2019-01-15T18:19:52.039Z,20.95
2019-01-15T18:22:39.830Z,16.45
2019-01-15T18:25:26.577Z,17.67
2019-01-15T18:28:08.278Z,14.73
2019-01-15T18:30:56.835Z,22.52
2019-01-15T18:33:47.452Z,16.57
2019-01-15T18:36:38.078Z,13.55
2019-01-15T18:39:27.745Z,11.85
2019-01-15T18:42:08.080Z,17.85
2019-01-15T18:45:02.588Z,16.00
2019-01-15T18:47:42.286Z,16.35
2019-01-15T18:50:24.942Z,10.38
2019-01-15T18:53:09.955Z,15.65
2019-01-15T18:55:58.147Z,12.03
2019-01-15T18:59:01.330Z,14.23
2019-01-15T19:01:49.327Z,10.88
2019-01-15T19:04:35.851Z,18.70
2019-01-15T19:07:22.601Z,16.32
2019-01-15T19:10:09.544Z,13.20
2019-01-15T19:12:56.786Z,19.07
2019-01-15T19:15:43.170Z,14.60
2019-01-15T19:18:34.054Z,15.03
2019-01-15T19:21:30.884Z,19.42
2019-01-15T19:24:12.540Z,20.82
2019-01-15T19:26:59.213Z,21.35
2019-01-15T19:30:05.411Z,19.75
2019-01-15T19:32:56.299Z,20.82
2019-01-15T19:35:43.957Z,22.27
2019-01-15T19:38:34.643Z,16.87
2019-01-15T19:41:14.130Z,16.67
2019-01-15T19:44:04.730Z,20.00
2019-01-15T19:46:48.270Z,17.27
2019-01-15T19:49:34.711Z,21.35
2019-01-15T19:52:18.094Z,22.45
2019-01-15T19:55:07.017Z,21.75
2019-01-15T19:57:51.074Z,12.45
2019-01-15T20:00:37.602Z,15.98
2019-01-15T20:03:24.314Z,15.10
2019-01-15T20:06:18.232Z,16.62
2019-01-15T20:09:04.909Z,16.30
2019-01-15T20:11:47.964Z,15.60
2019-01-15T20:14:35.899Z,13.40
2019-01-15T20:17:26.572Z,15.03
2019-01-15T20:20:13.222Z,14.68
2019-01-15T20:23:00.311Z,18.92
2019-01-15T20:25:51.318Z,18.37
2019-01-15T20:28:38.023Z,14.23
2019-01-15T20:31:22.586Z,16.10
2019-01-15T20:34:09.111Z,15.93
2019-01-15T20:37:03.146Z,16.45
2019-01-15T20:39:43.139Z,10.60
2019-01-15T20:42:46.130Z,16.10
2019-01-15T20:45:30.378Z,12.65
2019-01-15T20:48:14.978Z,16.73
2019-01-15T20:51:12.064Z,16.20
2019-01-15T20:54:09.270Z,15.72
2019-01-15T20:57:09.155Z,13.62
2019-01-15T20:59:47.608Z,14.05
2019-01-15T21:02:44.805Z,20.12
2019-01-15T21:05:32.691Z,18.55
2019-01-15T21:08:15.775Z,17.27
2019-01-15T21:11:22.080Z,17.27
2019-01-15T21:14:21.907Z,22.37
2019-01-15T21:17:12.981Z,20.88
2019-01-15T21:20:09.994Z,11.50
2019-01-15T21:23:05.230Z,11.40
2019-01-15T21:25:44.968Z,19.15
2019-01-15T21:28:34.374Z,16.82
2019-01-15T21:31:26.607Z,16.02
2019-01-15T21:34:18.154Z,13.68
2019-01-15T21:37:04.714Z,19.40
2019-01-15T21:40:04.814Z,12.65
2019-01-15T21:42:51.442Z,13.95
2019-01-15T21:45:38.978Z,26.60
2019-01-15T21:48:32.959Z,16.73
2019-01-15T21:51:19.355Z,15.43
2019-01-15T21:54:13.478Z,16.45
2019-01-15T21:56:56.346Z,12.85
2019-01-15T21:59:56.238Z,14.58
2019-01-15T22:02:53.400Z,15.63
2019-01-15T22:05:53.258Z,13.62
2019-01-15T22:08:52.977Z,15.95
2019-01-15T22:11:30.000Z,11.80
2019-01-15T22:14:29.855Z,14.70
2019-01-15T22:17:08.594Z,12.53
2019-01-15T22:20:02.621Z,10.23
2019-01-15T22:23:00.343Z,15.80
2019-01-15T22:25:46.862Z,13.45
2019-01-15T22:28:48.571Z,15.10
2019-01-15T22:31:45.530Z,10.20
2019-01-15T22:34:39.318Z,16.15
2019-01-15T22:37:42.272Z,14.93
2019-01-15T22:40:30.181Z,14.63
2019-01-15T22:43:11.799Z,12.82
2019-01-15T22:45:58.334Z,12.98
2019-01-15T22:48:46.284Z,11.83
2019-01-15T22:51:34.187Z,19.62
2019-01-15T22:54:20.720Z,16.48
2019-01-15T22:57:20.954Z,11.28
2019-01-15T23:00:16.606Z,11.22
2019-01-15T23:02:57.869Z,10.55
2019-01-15T23:06:01.242Z,13.48
2019-01-15T23:08:37.638Z,14.95
2019-01-15T23:11:24.082Z,14.28
2019-01-15T23:14:03.294Z,9.45
2019-01-15T23:16:43.276Z,14.70
2019-01-15T23:19:31.135Z,9.73
2019-01-15T23:22:24.242Z,12.10
2019-01-15T23:25:15.090Z,12.95
2019-01-15T23:28:05.972Z,15.40
2019-01-15T23:30:57.567Z,9.53
2019-01-15T23:33:51.313Z,11.88
2019-01-15T23:36:38.835Z,8.40
2019-01-15T23:39:17.436Z,11.88
2019-01-15T23:42:03.936Z,17.70
2019-01-15T23:44:50.942Z,8.95
2019-01-15T23:47:37.622Z,10.05
2019-01-15T23:50:25.791Z,14.83
2019-01-15T23:53:12.578Z,17.42
2019-01-15T23:56:00.469Z,14.60
2019-01-15T23:58:51.123Z,12.73
